Norfolk International Airport Norfolk US
ICAO: KORF
IATA: ORF
Category: Large
Scheduled Services: Yes

Elevation: 26 ft
TransAlt. 18000 ft.

Airport Communications:
APP:28.83
APP:118.9
ATIS:127.15
CLNC DEL:118.5
DEP:125.2
GND:121.9
LEESBURG RDO:116.9
TWR:120.8

KORF Zoom In..

Runways:

(A) RW 05 length 9001 ft width 150 ft
ILS 109.10 / hdg 47

(B) RW 14 length 4875 ft width 150 ft
---- / hdg 137

(C) RW 23 length 9001 ft width 150 ft
ILS 109.10 / hdg 227

(D) RW 32 length 4875 ft width 150 ft
---- / hdg 317

Location; KORF
Day. 20 / Time. 19.51 Zulu
* Altimeter: 30.05
* Temperature: 29° c. 84.2°f.
* Wind from: 100° Speed 10 kn.
Dewpoint: 16° c.
Visibility: 10 Statute Miles.
Clouds: Few 6500 ft.

KORF 201951Z 10010KT 10SM FEW065 29/16 A3005 RMK AO2 SLP177 T02940156


Wind From 100°
Speed 10 kn.

 
 
jpsmedia.com for Web Design worldairports.se 2018   terms of use